sensor_id;sensor_type;location;lat;lon;timestamp;P1;durP1;ratioP1;P2;durP2;ratioP2
78079;SDS011;67298;51.322;5.958;2023-05-07T00:04:27;3.3;;;2.7;;
78079;SDS011;67298;51.322;5.958;2023-05-07T00:09:07;3.8;;;2.6;;
78079;SDS011;67298;51.322;5.958;2023-05-07T00:13:46;3.9;;;2.1;;
78079;SDS011;67298;51.322;5.958;2023-05-07T00:18:25;3.2;;;2.1;;
78079;SDS011;67298;51.322;5.958;2023-05-07T00:23:05;2.9;;;1.8;;
78079;SDS011;67298;51.322;5.958;2023-05-07T00:27:44;1.5;;;1.4;;
78079;SDS011;67298;51.322;5.958;2023-05-07T00:32:24;2.0;;;1.7;;
78079;SDS011;67298;51.322;5.958;2023-05-07T00:37:03;1.8;;;1.5;;
78079;SDS011;67298;51.322;5.958;2023-05-07T00:41:42;2.5;;;1.7;;
78079;SDS011;67298;51.322;5.958;2023-05-07T00:46:22;2.9;;;1.7;;
78079;SDS011;67298;51.322;5.958;2023-05-07T00:51:01;1.5;;;1.4;;
78079;SDS011;67298;51.322;5.958;2023-05-07T00:55:40;2.4;;;1.8;;
78079;SDS011;67298;51.322;5.958;2023-05-07T01:00:20;4.0;;;1.6;;
78079;SDS011;67298;51.322;5.958;2023-05-07T01:04:59;6.4;;;2.3;;
78079;SDS011;67298;51.322;5.958;2023-05-07T01:09:39;3.0;;;2.3;;
78079;SDS011;67298;51.322;5.958;2023-05-07T01:14:18;2.1;;;1.6;;
78079;SDS011;67298;51.322;5.958;2023-05-07T01:18:57;3.1;;;2.0;;
78079;SDS011;67298;51.322;5.958;2023-05-07T01:23:37;2.0;;;1.4;;
78079;SDS011;67298;51.322;5.958;2023-05-07T01:28:16;3.4;;;1.6;;
78079;SDS011;67298;51.322;5.958;2023-05-07T01:32:56;3.1;;;1.9;;
78079;SDS011;67298;51.322;5.958;2023-05-07T01:37:35;2.2;;;1.2;;
78079;SDS011;67298;51.322;5.958;2023-05-07T01:42:14;0.3;;;0.3;;
78079;SDS011;67298;51.322;5.958;2023-05-07T01:46:54;3.1;;;1.6;;
78079;SDS011;67298;51.322;5.958;2023-05-07T01:51:33;1.3;;;1.0;;
78079;SDS011;67298;51.322;5.958;2023-05-07T01:56:12;2.1;;;1.4;;
78079;SDS011;67298;51.322;5.958;2023-05-07T02:00:52;2.5;;;1.4;;
78079;SDS011;67298;51.322;5.958;2023-05-07T02:05:31;1.2;;;1.0;;
78079;SDS011;67298;51.322;5.958;2023-05-07T02:10:11;3.0;;;1.4;;
78079;SDS011;67298;51.322;5.958;2023-05-07T02:14:50;4.6;;;1.1;;
78079;SDS011;67298;51.322;5.958;2023-05-07T02:19:29;4.3;;;1.4;;
78079;SDS011;67298;51.322;5.958;2023-05-07T02:24:09;2.9;;;1.5;;
78079;SDS011;67298;51.322;5.958;2023-05-07T02:28:48;3.1;;;0.9;;
78079;SDS011;67298;51.322;5.958;2023-05-07T02:33:28;2.5;;;1.2;;
78079;SDS011;67298;51.322;5.958;2023-05-07T02:38:07;2.7;;;1.3;;
78079;SDS011;67298;51.322;5.958;2023-05-07T02:42:46;1.1;;;1.1;;
78079;SDS011;67298;51.322;5.958;2023-05-07T02:47:26;3.1;;;1.8;;
78079;SDS011;67298;51.322;5.958;2023-05-07T02:52:05;5.2;;;2.1;;
78079;SDS011;67298;51.322;5.958;2023-05-07T02:56:46;3.5;;;2.1;;
78079;SDS011;67298;51.322;5.958;2023-05-07T03:01:26;5.6;;;2.1;;
78079;SDS011;67298;51.322;5.958;2023-05-07T03:06:06;5.2;;;2.7;;
78079;SDS011;67298;51.322;5.958;2023-05-07T03:10:46;4.1;;;2.2;;
78079;SDS011;67298;51.322;5.958;2023-05-07T03:15:25;3.6;;;2.3;;
78079;SDS011;67298;51.322;5.958;2023-05-07T03:20:05;3.1;;;2.2;;
78079;SDS011;67298;51.322;5.958;2023-05-07T03:24:44;2.7;;;2.0;;
78079;SDS011;67298;51.322;5.958;2023-05-07T03:29:24;3.9;;;2.4;;
78079;SDS011;67298;51.322;5.958;2023-05-07T03:34:03;3.6;;;2.6;;
78079;SDS011;67298;51.322;5.958;2023-05-07T03:38:44;2.9;;;2.5;;
78079;SDS011;67298;51.322;5.958;2023-05-07T03:43:23;4.8;;;1.8;;
78079;SDS011;67298;51.322;5.958;2023-05-07T03:48:03;3.8;;;2.3;;
78079;SDS011;67298;51.322;5.958;2023-05-07T03:52:42;4.2;;;2.6;;
78079;SDS011;67298;51.322;5.958;2023-05-07T03:57:23;4.5;;;2.3;;
78079;SDS011;67298;51.322;5.958;2023-05-07T04:02:02;4.5;;;2.0;;
78079;SDS011;67298;51.322;5.958;2023-05-07T04:06:41;6.5;;;3.0;;
78079;SDS011;67298;51.322;5.958;2023-05-07T04:11:21;6.0;;;2.9;;
78079;SDS011;67298;51.322;5.958;2023-05-07T04:16:00;4.0;;;2.3;;
78079;SDS011;67298;51.322;5.958;2023-05-07T04:20:40;1.1;;;0.9;;
78079;SDS011;67298;51.322;5.958;2023-05-07T04:25:19;2.9;;;1.8;;
78079;SDS011;67298;51.322;5.958;2023-05-07T04:29:58;2.2;;;2.0;;
78079;SDS011;67298;51.322;5.958;2023-05-07T04:34:38;4.1;;;2.1;;
78079;SDS011;67298;51.322;5.958;2023-05-07T04:39:18;2.0;;;1.8;;
78079;SDS011;67298;51.322;5.958;2023-05-07T04:43:57;4.0;;;1.7;;
78079;SDS011;67298;51.322;5.958;2023-05-07T04:48:37;3.0;;;2.0;;
78079;SDS011;67298;51.322;5.958;2023-05-07T04:53:16;4.2;;;2.3;;
78079;SDS011;67298;51.322;5.958;2023-05-07T04:57:55;3.9;;;2.4;;
78079;SDS011;67298;51.322;5.958;2023-05-07T05:02:35;3.9;;;2.3;;
78079;SDS011;67298;51.322;5.958;2023-05-07T05:07:14;3.7;;;1.8;;
78079;SDS011;67298;51.322;5.958;2023-05-07T05:11:53;3.8;;;1.9;;
78079;SDS011;67298;51.322;5.958;2023-05-07T05:16:33;2.4;;;1.5;;
78079;SDS011;67298;51.322;5.958;2023-05-07T05:21:12;1.0;;;0.8;;
78079;SDS011;67298;51.322;5.958;2023-05-07T05:25:52;2.7;;;1.5;;
78079;SDS011;67298;51.322;5.958;2023-05-07T05:30:31;2.2;;;1.3;;
78079;SDS011;67298;51.322;5.958;2023-05-07T05:35:11;2.9;;;1.3;;
78079;SDS011;67298;51.322;5.958;2023-05-07T05:39:50;2.6;;;1.3;;
78079;SDS011;67298;51.322;5.958;2023-05-07T05:44:29;4.2;;;1.0;;
78079;SDS011;67298;51.322;5.958;2023-05-07T05:49:09;2.8;;;1.3;;
78079;SDS011;67298;51.322;5.958;2023-05-07T05:53:48;2.6;;;1.4;;
78079;SDS011;67298;51.322;5.958;2023-05-07T05:58:27;2.7;;;1.5;;
78079;SDS011;67298;51.322;5.958;2023-05-07T06:03:07;9.9;;;2.2;;
78079;SDS011;67298;51.322;5.958;2023-05-07T06:07:47;4.6;;;1.1;;
78079;SDS011;67298;51.322;5.958;2023-05-07T06:12:26;4.3;;;1.3;;
78079;SDS011;67298;51.322;5.958;2023-05-07T06:17:06;4.3;;;1.5;;
78079;SDS011;67298;51.322;5.958;2023-05-07T06:21:45;0.5;;;0.4;;
78079;SDS011;67298;51.322;5.958;2023-05-07T06:26:25;5.4;;;1.2;;
78079;SDS011;67298;51.322;5.958;2023-05-07T06:31:04;3.0;;;0.8;;
78079;SDS011;67298;51.322;5.958;2023-05-07T06:35:43;2.8;;;1.0;;
78079;SDS011;67298;51.322;5.958;2023-05-07T06:40:23;4.1;;;1.3;;
78079;SDS011;67298;51.322;5.958;2023-05-07T06:45:02;1.3;;;1.1;;
78079;SDS011;67298;51.322;5.958;2023-05-07T06:49:42;3.8;;;1.4;;
78079;SDS011;67298;51.322;5.958;2023-05-07T06:54:21;1.6;;;1.2;;
78079;SDS011;67298;51.322;5.958;2023-05-07T06:59:01;7.8;;;0.8;;
78079;SDS011;67298;51.322;5.958;2023-05-07T07:03:40;2.6;;;1.5;;
78079;SDS011;67298;51.322;5.958;2023-05-07T07:08:19;1.3;;;1.1;;
78079;SDS011;67298;51.322;5.958;2023-05-07T07:12:59;2.8;;;1.3;;
78079;SDS011;67298;51.322;5.958;2023-05-07T07:17:38;2.9;;;1.1;;
78079;SDS011;67298;51.322;5.958;2023-05-07T07:22:17;0.7;;;0.5;;
78079;SDS011;67298;51.322;5.958;2023-05-07T07:26:57;1.3;;;0.9;;
78079;SDS011;67298;51.322;5.958;2023-05-07T07:31:36;2.5;;;1.7;;
78079;SDS011;67298;51.322;5.958;2023-05-07T07:36:16;2.7;;;1.4;;
78079;SDS011;67298;51.322;5.958;2023-05-07T07:40:55;2.1;;;1.1;;
78079;SDS011;67298;51.322;5.958;2023-05-07T07:45:35;3.7;;;0.7;;
78079;SDS011;67298;51.322;5.958;2023-05-07T07:50:14;2.7;;;1.0;;
78079;SDS011;67298;51.322;5.958;2023-05-07T07:54:53;2.9;;;1.0;;
78079;SDS011;67298;51.322;5.958;2023-05-07T07:59:33;1.9;;;1.2;;
78079;SDS011;67298;51.322;5.958;2023-05-07T08:04:12;2.0;;;0.8;;
78079;SDS011;67298;51.322;5.958;2023-05-07T08:08:51;3.4;;;0.9;;
78079;SDS011;67298;51.322;5.958;2023-05-07T08:13:31;2.6;;;1.2;;
78079;SDS011;67298;51.322;5.958;2023-05-07T08:18:10;2.7;;;1.2;;
78079;SDS011;67298;51.322;5.958;2023-05-07T08:22:50;3.7;;;1.3;;
78079;SDS011;67298;51.322;5.958;2023-05-07T08:27:29;3.1;;;1.2;;
78079;SDS011;67298;51.322;5.958;2023-05-07T08:32:08;4.2;;;1.5;;
78079;SDS011;67298;51.322;5.958;2023-05-07T08:36:48;3.2;;;1.6;;
78079;SDS011;67298;51.322;5.958;2023-05-07T08:41:27;3.3;;;1.7;;
78079;SDS011;67298;51.322;5.958;2023-05-07T08:46:06;4.3;;;1.5;;
78079;SDS011;67298;51.322;5.958;2023-05-07T08:50:46;3.8;;;1.7;;
78079;SDS011;67298;51.322;5.958;2023-05-07T08:55:25;1.9;;;1.4;;
78079;SDS011;67298;51.322;5.958;2023-05-07T09:00:04;1.2;;;1.1;;
78079;SDS011;67298;51.322;5.958;2023-05-07T09:04:44;2.9;;;1.7;;
78079;SDS011;67298;51.322;5.958;2023-05-07T09:09:24;1.8;;;1.4;;
78079;SDS011;67298;51.322;5.958;2023-05-07T09:14:03;2.6;;;1.6;;
78079;SDS011;67298;51.322;5.958;2023-05-07T09:18:43;1.9;;;1.3;;
78079;SDS011;67298;51.322;5.958;2023-05-07T09:23:22;2.2;;;1.1;;
78079;SDS011;67298;51.322;5.958;2023-05-07T09:28:01;3.5;;;1.3;;
78079;SDS011;67298;51.322;5.958;2023-05-07T09:32:41;2.8;;;1.4;;
78079;SDS011;67298;51.322;5.958;2023-05-07T09:37:20;0.3;;;0.3;;
78079;SDS011;67298;51.322;5.958;2023-05-07T09:42:00;2.7;;;1.1;;
78079;SDS011;67298;51.322;5.958;2023-05-07T09:46:39;2.0;;;1.3;;
78079;SDS011;67298;51.322;5.958;2023-05-07T09:51:18;2.8;;;1.3;;
78079;SDS011;67298;51.322;5.958;2023-05-07T09:55:58;1.7;;;1.0;;
78079;SDS011;67298;51.322;5.958;2023-05-07T10:00:37;2.1;;;1.1;;
78079;SDS011;67298;51.322;5.958;2023-05-07T10:05:17;3.9;;;1.0;;
78079;SDS011;67298;51.322;5.958;2023-05-07T10:09:56;2.6;;;1.3;;
78079;SDS011;67298;51.322;5.958;2023-05-07T10:14:36;1.7;;;1.1;;
78079;SDS011;67298;51.322;5.958;2023-05-07T10:19:15;1.5;;;0.8;;
78079;SDS011;67298;51.322;5.958;2023-05-07T10:23:54;3.3;;;0.9;;
78079;SDS011;67298;51.322;5.958;2023-05-07T10:28:34;2.2;;;1.0;;
78079;SDS011;67298;51.322;5.958;2023-05-07T10:33:13;2.9;;;1.0;;
78079;SDS011;67298;51.322;5.958;2023-05-07T10:37:52;0.8;;;0.6;;
78079;SDS011;67298;51.322;5.958;2023-05-07T10:42:32;1.2;;;1.1;;
78079;SDS011;67298;51.322;5.958;2023-05-07T10:47:12;1.7;;;0.9;;
78079;SDS011;67298;51.322;5.958;2023-05-07T10:51:52;2.5;;;0.9;;
78079;SDS011;67298;51.322;5.958;2023-05-07T10:56:32;2.2;;;0.9;;
78079;SDS011;67298;51.322;5.958;2023-05-07T11:01:11;2.6;;;1.0;;
78079;SDS011;67298;51.322;5.958;2023-05-07T11:05:50;2.7;;;1.2;;
78079;SDS011;67298;51.322;5.958;2023-05-07T11:10:30;2.4;;;0.9;;
78079;SDS011;67298;51.322;5.958;2023-05-07T11:15:09;2.5;;;1.1;;
78079;SDS011;67298;51.322;5.958;2023-05-07T11:19:49;1.6;;;1.0;;
78079;SDS011;67298;51.322;5.958;2023-05-07T11:24:28;0.8;;;0.8;;
78079;SDS011;67298;51.322;5.958;2023-05-07T11:29:07;2.4;;;1.0;;
78079;SDS011;67298;51.322;5.958;2023-05-07T11:33:48;0.8;;;0.8;;
78079;SDS011;67298;51.322;5.958;2023-05-07T11:38:27;1.4;;;0.7;;
78079;SDS011;67298;51.322;5.958;2023-05-07T11:43:07;2.1;;;1.0;;
78079;SDS011;67298;51.322;5.958;2023-05-07T11:47:46;1.5;;;0.8;;
78079;SDS011;67298;51.322;5.958;2023-05-07T11:52:27;1.8;;;1.0;;
78079;SDS011;67298;51.322;5.958;2023-05-07T11:57:07;2.4;;;1.1;;
78079;SDS011;67298;51.322;5.958;2023-05-07T12:01:47;1.3;;;1.2;;
78079;SDS011;67298;51.322;5.958;2023-05-07T12:06:29;2.5;;;1.2;;
78079;SDS011;67298;51.322;5.958;2023-05-07T12:11:09;1.7;;;1.0;;
78079;SDS011;67298;51.322;5.958;2023-05-07T12:15:49;0.1;;;0.1;;
78079;SDS011;67298;51.322;5.958;2023-05-07T12:20:28;1.3;;;0.9;;
78079;SDS011;67298;51.322;5.958;2023-05-07T12:25:09;1.4;;;0.9;;
78079;SDS011;67298;51.322;5.958;2023-05-07T12:29:50;2.1;;;1.1;;
78079;SDS011;67298;51.322;5.958;2023-05-07T12:34:35;2.5;;;1.1;;
78079;SDS011;67298;51.322;5.958;2023-05-07T12:39:16;0.9;;;0.9;;
78079;SDS011;67298;51.322;5.958;2023-05-07T12:43:56;2.4;;;1.1;;
78079;SDS011;67298;51.322;5.958;2023-05-07T12:48:35;2.3;;;1.1;;
78079;SDS011;67298;51.322;5.958;2023-05-07T12:53:39;2.1;;;1.2;;
78079;SDS011;67298;51.322;5.958;2023-05-07T12:58:18;3.1;;;1.4;;
78079;SDS011;67298;51.322;5.958;2023-05-07T13:02:58;5.0;;;1.7;;
78079;SDS011;67298;51.322;5.958;2023-05-07T13:07:38;3.0;;;1.5;;
78079;SDS011;67298;51.322;5.958;2023-05-07T13:12:26;3.0;;;1.5;;
78079;SDS011;67298;51.322;5.958;2023-05-07T13:17:38;1.0;;;0.9;;
78079;SDS011;67298;51.322;5.958;2023-05-07T13:22:26;3.7;;;1.5;;
78079;SDS011;67298;51.322;5.958;2023-05-07T13:27:09;2.9;;;1.6;;
78079;SDS011;67298;51.322;5.958;2023-05-07T13:31:55;3.1;;;1.7;;
78079;SDS011;67298;51.322;5.958;2023-05-07T13:36:35;1.9;;;1.4;;
78079;SDS011;67298;51.322;5.958;2023-05-07T13:41:15;0.9;;;0.9;;
78079;SDS011;67298;51.322;5.958;2023-05-07T13:45:55;3.8;;;1.3;;
78079;SDS011;67298;51.322;5.958;2023-05-07T13:50:38;2.0;;;1.2;;
78079;SDS011;67298;51.322;5.958;2023-05-07T13:55:25;1.4;;;1.3;;
78079;SDS011;67298;51.322;5.958;2023-05-07T14:00:04;3.5;;;1.4;;
78079;SDS011;67298;51.322;5.958;2023-05-07T14:04:44;1.9;;;1.3;;
78079;SDS011;67298;51.322;5.958;2023-05-07T14:09:24;2.0;;;1.4;;
78079;SDS011;67298;51.322;5.958;2023-05-07T14:14:05;3.1;;;1.4;;
78079;SDS011;67298;51.322;5.958;2023-05-07T14:18:44;0.9;;;0.9;;
78079;SDS011;67298;51.322;5.958;2023-05-07T14:23:24;3.1;;;1.4;;
78079;SDS011;67298;51.322;5.958;2023-05-07T14:28:03;2.3;;;1.6;;
78079;SDS011;67298;51.322;5.958;2023-05-07T14:32:45;2.5;;;1.7;;
78079;SDS011;67298;51.322;5.958;2023-05-07T14:37:25;2.8;;;1.3;;
78079;SDS011;67298;51.322;5.958;2023-05-07T14:42:04;2.9;;;1.3;;
78079;SDS011;67298;51.322;5.958;2023-05-07T14:46:47;3.1;;;1.6;;
78079;SDS011;67298;51.322;5.958;2023-05-07T14:51:27;1.9;;;1.4;;
78079;SDS011;67298;51.322;5.958;2023-05-07T14:56:07;1.0;;;1.0;;
78079;SDS011;67298;51.322;5.958;2023-05-07T15:00:48;5.2;;;1.7;;
78079;SDS011;67298;51.322;5.958;2023-05-07T15:05:28;5.0;;;2.1;;
78079;SDS011;67298;51.322;5.958;2023-05-07T15:10:08;4.3;;;1.9;;
78079;SDS011;67298;51.322;5.958;2023-05-07T15:14:47;2.8;;;1.6;;
78079;SDS011;67298;51.322;5.958;2023-05-07T15:19:26;4.2;;;1.1;;
78079;SDS011;67298;51.322;5.958;2023-05-07T15:24:06;3.3;;;1.7;;
78079;SDS011;67298;51.322;5.958;2023-05-07T15:28:45;4.7;;;1.6;;
78079;SDS011;67298;51.322;5.958;2023-05-07T15:33:25;3.5;;;1.7;;
78079;SDS011;67298;51.322;5.958;2023-05-07T15:38:04;2.4;;;1.6;;
78079;SDS011;67298;51.322;5.958;2023-05-07T15:42:43;1.8;;;1.3;;
78079;SDS011;67298;51.322;5.958;2023-05-07T15:47:23;2.6;;;1.8;;
78079;SDS011;67298;51.322;5.958;2023-05-07T15:52:02;2.2;;;1.7;;
78079;SDS011;67298;51.322;5.958;2023-05-07T15:56:42;1.5;;;1.1;;
78079;SDS011;67298;51.322;5.958;2023-05-07T16:01:21;2.3;;;2.0;;
78079;SDS011;67298;51.322;5.958;2023-05-07T16:06:00;2.9;;;1.8;;
78079;SDS011;67298;51.322;5.958;2023-05-07T16:10:40;2.8;;;1.9;;
78079;SDS011;67298;51.322;5.958;2023-05-07T16:15:19;3.6;;;1.6;;
78079;SDS011;67298;51.322;5.958;2023-05-07T16:19:59;1.4;;;1.3;;
78079;SDS011;67298;51.322;5.958;2023-05-07T16:24:38;1.8;;;1.7;;
78079;SDS011;67298;51.322;5.958;2023-05-07T16:29:18;3.1;;;1.8;;
78079;SDS011;67298;51.322;5.958;2023-05-07T16:33:57;3.5;;;2.0;;
78079;SDS011;67298;51.322;5.958;2023-05-07T16:38:37;3.1;;;2.1;;
78079;SDS011;67298;51.322;5.958;2023-05-07T16:43:16;1.9;;;1.8;;
78079;SDS011;67298;51.322;5.958;2023-05-07T16:47:55;2.5;;;2.0;;
78079;SDS011;67298;51.322;5.958;2023-05-07T16:52:35;2.1;;;1.7;;
78079;SDS011;67298;51.322;5.958;2023-05-07T16:57:14;3.9;;;1.9;;
78079;SDS011;67298;51.322;5.958;2023-05-07T17:01:54;3.8;;;1.9;;
78079;SDS011;67298;51.322;5.958;2023-05-07T17:06:33;3.9;;;2.2;;
78079;SDS011;67298;51.322;5.958;2023-05-07T17:11:13;3.0;;;2.3;;
78079;SDS011;67298;51.322;5.958;2023-05-07T17:15:52;3.1;;;2.8;;
78079;SDS011;67298;51.322;5.958;2023-05-07T17:20:31;4.6;;;2.8;;
78079;SDS011;67298;51.322;5.958;2023-05-07T17:25:11;4.8;;;3.4;;
78079;SDS011;67298;51.322;5.958;2023-05-07T17:29:50;6.6;;;3.4;;
78079;SDS011;67298;51.322;5.958;2023-05-07T17:34:30;2.5;;;2.4;;
78079;SDS011;67298;51.322;5.958;2023-05-07T17:39:09;4.5;;;4.1;;
78079;SDS011;67298;51.322;5.958;2023-05-07T17:43:49;5.0;;;4.1;;
78079;SDS011;67298;51.322;5.958;2023-05-07T17:48:28;4.9;;;4.2;;
78079;SDS011;67298;51.322;5.958;2023-05-07T17:53:07;4.2;;;3.8;;
78079;SDS011;67298;51.322;5.958;2023-05-07T17:57:47;8.1;;;6.5;;
78079;SDS011;67298;51.322;5.958;2023-05-07T18:02:26;9.4;;;6.7;;
78079;SDS011;67298;51.322;5.958;2023-05-07T18:07:05;3.7;;;3.1;;
78079;SDS011;67298;51.322;5.958;2023-05-07T18:11:45;4.7;;;3.3;;
78079;SDS011;67298;51.322;5.958;2023-05-07T18:16:24;3.5;;;3.2;;
78079;SDS011;67298;51.322;5.958;2023-05-07T18:21:05;3.8;;;3.5;;
78079;SDS011;67298;51.322;5.958;2023-05-07T18:25:44;5.9;;;5.4;;
78079;SDS011;67298;51.322;5.958;2023-05-07T18:30:23;4.8;;;4.4;;
78079;SDS011;67298;51.322;5.958;2023-05-07T18:35:03;4.3;;;3.5;;
78079;SDS011;67298;51.322;5.958;2023-05-07T18:39:42;5.0;;;4.6;;
78079;SDS011;67298;51.322;5.958;2023-05-07T18:44:21;6.8;;;4.5;;
78079;SDS011;67298;51.322;5.958;2023-05-07T18:49:01;5.6;;;4.3;;
78079;SDS011;67298;51.322;5.958;2023-05-07T18:53:40;4.7;;;3.9;;
78079;SDS011;67298;51.322;5.958;2023-05-07T18:58:19;3.5;;;3.2;;
78079;SDS011;67298;51.322;5.958;2023-05-07T19:02:59;4.9;;;4.3;;
78079;SDS011;67298;51.322;5.958;2023-05-07T19:07:38;4.6;;;4.2;;
78079;SDS011;67298;51.322;5.958;2023-05-07T19:12:18;5.3;;;4.8;;
78079;SDS011;67298;51.322;5.958;2023-05-07T19:16:57;6.0;;;5.4;;
78079;SDS011;67298;51.322;5.958;2023-05-07T19:21:36;4.2;;;3.8;;
78079;SDS011;67298;51.322;5.958;2023-05-07T19:26:16;5.6;;;4.5;;
78079;SDS011;67298;51.322;5.958;2023-05-07T19:30:55;6.2;;;4.8;;
78079;SDS011;67298;51.322;5.958;2023-05-07T19:35:34;5.9;;;5.3;;
78079;SDS011;67298;51.322;5.958;2023-05-07T19:40:14;5.2;;;4.8;;
78079;SDS011;67298;51.322;5.958;2023-05-07T19:44:53;4.4;;;4.0;;
78079;SDS011;67298;51.322;5.958;2023-05-07T19:49:33;5.6;;;4.9;;
78079;SDS011;67298;51.322;5.958;2023-05-07T19:54:12;6.6;;;3.9;;
78079;SDS011;67298;51.322;5.958;2023-05-07T19:58:51;4.9;;;3.1;;
78079;SDS011;67298;51.322;5.958;2023-05-07T20:03:31;4.5;;;3.7;;
78079;SDS011;67298;51.322;5.958;2023-05-07T20:08:10;4.7;;;3.9;;
78079;SDS011;67298;51.322;5.958;2023-05-07T20:12:49;4.6;;;3.7;;
78079;SDS011;67298;51.322;5.958;2023-05-07T20:17:29;4.5;;;4.1;;
78079;SDS011;67298;51.322;5.958;2023-05-07T20:22:08;4.5;;;3.7;;
78079;SDS011;67298;51.322;5.958;2023-05-07T20:26:48;4.9;;;3.7;;
78079;SDS011;67298;51.322;5.958;2023-05-07T20:31:27;4.0;;;3.6;;
78079;SDS011;67298;51.322;5.958;2023-05-07T20:36:06;4.3;;;3.3;;
78079;SDS011;67298;51.322;5.958;2023-05-07T20:40:46;5.0;;;4.3;;
78079;SDS011;67298;51.322;5.958;2023-05-07T20:45:25;4.8;;;4.1;;
78079;SDS011;67298;51.322;5.958;2023-05-07T20:50:05;5.3;;;4.8;;
78079;SDS011;67298;51.322;5.958;2023-05-07T20:54:44;5.7;;;4.2;;
78079;SDS011;67298;51.322;5.958;2023-05-07T20:59:24;9.6;;;4.1;;
78079;SDS011;67298;51.322;5.958;2023-05-07T21:04:03;6.3;;;4.9;;
78079;SDS011;67298;51.322;5.958;2023-05-07T21:08:42;4.8;;;4.1;;
78079;SDS011;67298;51.322;5.958;2023-05-07T21:13:22;2.1;;;1.9;;
78079;SDS011;67298;51.322;5.958;2023-05-07T21:18:01;6.1;;;5.1;;
78079;SDS011;67298;51.322;5.958;2023-05-07T21:22:40;4.8;;;4.1;;
78079;SDS011;67298;51.322;5.958;2023-05-07T21:27:20;6.4;;;4.9;;
78079;SDS011;67298;51.322;5.958;2023-05-07T21:31:59;7.3;;;4.5;;
78079;SDS011;67298;51.322;5.958;2023-05-07T21:36:38;3.8;;;3.5;;
78079;SDS011;67298;51.322;5.958;2023-05-07T21:41:18;4.8;;;4.4;;
78079;SDS011;67298;51.322;5.958;2023-05-07T21:45:57;6.3;;;5.1;;
78079;SDS011;67298;51.322;5.958;2023-05-07T21:50:37;6.7;;;5.9;;
78079;SDS011;67298;51.322;5.958;2023-05-07T21:55:19;6.0;;;5.4;;
78079;SDS011;67298;51.322;5.958;2023-05-07T21:59:58;4.9;;;4.4;;
78079;SDS011;67298;51.322;5.958;2023-05-07T22:04:38;6.2;;;5.6;;
78079;SDS011;67298;51.322;5.958;2023-05-07T22:09:18;5.6;;;5.1;;
78079;SDS011;67298;51.322;5.958;2023-05-07T22:13:57;3.9;;;3.6;;
78079;SDS011;67298;51.322;5.958;2023-05-07T22:18:36;6.0;;;5.1;;
78079;SDS011;67298;51.322;5.958;2023-05-07T22:23:16;6.5;;;5.2;;
78079;SDS011;67298;51.322;5.958;2023-05-07T22:27:55;7.0;;;5.8;;
78079;SDS011;67298;51.322;5.958;2023-05-07T22:32:35;4.9;;;4.4;;
78079;SDS011;67298;51.322;5.958;2023-05-07T22:37:14;4.9;;;4.4;;
78079;SDS011;67298;51.322;5.958;2023-05-07T22:41:53;6.7;;;6.0;;
78079;SDS011;67298;51.322;5.958;2023-05-07T22:46:33;7.0;;;5.3;;
78079;SDS011;67298;51.322;5.958;2023-05-07T22:51:12;0.8;;;0.5;;
78079;SDS011;67298;51.322;5.958;2023-05-07T22:55:51;6.7;;;5.6;;
78079;SDS011;67298;51.322;5.958;2023-05-07T23:00:31;6.5;;;5.5;;
78079;SDS011;67298;51.322;5.958;2023-05-07T23:05:10;7.6;;;6.5;;
78079;SDS011;67298;51.322;5.958;2023-05-07T23:09:50;7.8;;;6.4;;
78079;SDS011;67298;51.322;5.958;2023-05-07T23:14:29;6.1;;;5.5;;
78079;SDS011;67298;51.322;5.958;2023-05-07T23:19:08;9.1;;;7.0;;
78079;SDS011;67298;51.322;5.958;2023-05-07T23:23:48;7.8;;;6.8;;
78079;SDS011;67298;51.322;5.958;2023-05-07T23:28:27;8.5;;;7.6;;
78079;SDS011;67298;51.322;5.958;2023-05-07T23:33:06;7.9;;;6.5;;
78079;SDS011;67298;51.322;5.958;2023-05-07T23:37:46;7.2;;;6.1;;
78079;SDS011;67298;51.322;5.958;2023-05-07T23:42:25;7.8;;;7.1;;
78079;SDS011;67298;51.322;5.958;2023-05-07T23:47:04;8.0;;;7.2;;
78079;SDS011;67298;51.322;5.958;2023-05-07T23:51:44;12.4;;;7.9;;
78079;SDS011;67298;51.322;5.958;2023-05-07T23:56:23;9.3;;;8.0;;
